Nearby METAR Reports

 

TNCA - Queen Beatrix, Lesser Antilles
Distance from station: 0 0km
Updated: 21/01/2018 04:00
Few Clouds
Few Clouds
 Wind from E
Wind: E 28 km/h
Temperature: 26°C
Dew Point: 23°C
Humidity: 84%
Barometer: 1011 hPa
Clouds: Few Clouds
Visibility: 10 km
Cloud details: Few Clouds 549 m
2018/01/21 08:00 TNCA 210800Z 09015KT 9999 FEW018 26/23 Q1011 NOSIG
SVJC - Paraguana/Josefa, Venezuela
Distance from station: S 83km
Updated: 05/12/2017 15:00
NOT Current

 
2017/12/05 19:00 SVJC 051900Z NL
 
TNCC - Hato Air Curacao, Lesser Antilles
Distance from station: ESE 117km
Updated: 21/01/2018 04:00
Partly Cloudy
Partly Cloudy
 Wind from ESE
Wind: ESE 20 km/h
Temperature: 26°C
Dew Point: 22°C
Humidity: 79%
Barometer: 1012 hPa
Clouds: Partly Cloudy
Visibility: 10 km
Cloud details: Partly Cloudy 518 m
2018/01/21 08:00 TNCC 210800Z 11011KT 9999 SCT017 26/22 Q1012 NOSIG
SVCR - Coro/Jose Leonar, Venezuela
Distance from station: SSE 126km
Updated: 19/01/2018 19:00
NOT Current
Few Clouds
Few Clouds
 Wind from varies
Wind: varies 0 km/h
Temperature: 29°C
Heat Index: 32°C
Dew Point: 23°C
Humidity: 70%
Barometer: 1011 hPa
Clouds: Few Clouds
Visibility: 10 km
Cloud details: Few Clouds 488 m
2018/01/19 23:00 SVCR 192300Z /////KT 9999 FEW016 29/23 Q1011
 
TNCB - Bonaire/Flamingo, Lesser Antilles
Distance from station: ESE 191km
Updated: 21/01/2018 03:55
Partly Cloudy
Partly Cloudy
 Wind from E
Wind: E 24 km/h
Temperature: 26°C
Dew Point: 23°C
Humidity: 84%
Barometer: 1011 hPa
Clouds: Partly Cloudy
Cloud details: Partly Cloudy 488 m
Partly Cloudy 762 m
2018/01/21 07:55 TNCB 210755Z AUTO 09013KT //// // SCT016/// SCT025/// 26/23 Q1011 RE//
SVMC - Maracaibo/La Chi, Venezuela
Distance from station: SW 285km
Updated: 20/01/2018 21:00
NOT Current
Few Clouds
Few Clouds
 Wind from NNE
Wind: NNE 15 km/h
Temperature: 27°C
Heat Index: 29°C
Dew Point: 22°C
Humidity: 74%
Barometer: 1011 hPa
Clouds: Few Clouds
Visibility: 10 km
Cloud details: Few Clouds 396 m
2018/01/21 01:00 SVMC 210100Z 02008KT 9999 FEW013 27/22 Q1011